sensor_id;sensor_type;location;lat;lon;timestamp;P1;durP1;ratioP1;P2;durP2;ratioP2
7829;SDS011;3960;51.86894000;5.39848000;2023-01-25T00:00:37;30.20;;;19.83;;
7829;SDS011;3960;51.86894000;5.39848000;2023-01-25T00:03:03;33.90;;;20.50;;
7829;SDS011;3960;51.86894000;5.39848000;2023-01-25T00:05:28;30.67;;;20.45;;
7829;SDS011;3960;51.86894000;5.39848000;2023-01-25T00:07:53;31.05;;;20.13;;
7829;SDS011;3960;51.86894000;5.39848000;2023-01-25T00:10:19;30.45;;;19.08;;
7829;SDS011;3960;51.86894000;5.39848000;2023-01-25T00:12:44;33.40;;;21.45;;
7829;SDS011;3960;51.86894000;5.39848000;2023-01-25T00:15:10;31.27;;;20.58;;
7829;SDS011;3960;51.86894000;5.39848000;2023-01-25T00:17:35;34.33;;;20.88;;
7829;SDS011;3960;51.86894000;5.39848000;2023-01-25T00:20:01;32.35;;;20.55;;
7829;SDS011;3960;51.86894000;5.39848000;2023-01-25T00:22:26;31.38;;;21.00;;
7829;SDS011;3960;51.86894000;5.39848000;2023-01-25T00:24:51;31.38;;;19.85;;
7829;SDS011;3960;51.86894000;5.39848000;2023-01-25T00:27:17;34.67;;;21.20;;
7829;SDS011;3960;51.86894000;5.39848000;2023-01-25T00:29:42;35.45;;;21.95;;
7829;SDS011;3960;51.86894000;5.39848000;2023-01-25T00:39:53;32.20;;;21.13;;
7829;SDS011;3960;51.86894000;5.39848000;2023-01-25T00:42:19;36.13;;;22.02;;
7829;SDS011;3960;51.86894000;5.39848000;2023-01-25T00:44:45;32.00;;;21.33;;
7829;SDS011;3960;51.86894000;5.39848000;2023-01-25T00:47:12;33.28;;;20.80;;
7829;SDS011;3960;51.86894000;5.39848000;2023-01-25T00:49:38;32.53;;;20.85;;
7829;SDS011;3960;51.86894000;5.39848000;2023-01-25T00:52:05;34.10;;;21.75;;
7829;SDS011;3960;51.86894000;5.39848000;2023-01-25T00:54:31;33.63;;;21.45;;
7829;SDS011;3960;51.86894000;5.39848000;2023-01-25T00:56:56;31.67;;;20.63;;
7829;SDS011;3960;51.86894000;5.39848000;2023-01-25T00:59:22;32.38;;;20.48;;
7829;SDS011;3960;51.86894000;5.39848000;2023-01-25T01:01:48;33.55;;;21.58;;
7829;SDS011;3960;51.86894000;5.39848000;2023-01-25T01:04:14;30.95;;;20.55;;
7829;SDS011;3960;51.86894000;5.39848000;2023-01-25T01:06:40;33.72;;;21.38;;
7829;SDS011;3960;51.86894000;5.39848000;2023-01-25T01:09:07;33.40;;;21.05;;
7829;SDS011;3960;51.86894000;5.39848000;2023-01-25T01:11:36;32.20;;;20.98;;
7829;SDS011;3960;51.86894000;5.39848000;2023-01-25T01:14:01;34.35;;;21.73;;
7829;SDS011;3960;51.86894000;5.39848000;2023-01-25T01:16:27;34.15;;;21.00;;
7829;SDS011;3960;51.86894000;5.39848000;2023-01-25T01:18:52;31.77;;;20.60;;
7829;SDS011;3960;51.86894000;5.39848000;2023-01-25T01:21:17;34.83;;;21.95;;
7829;SDS011;3960;51.86894000;5.39848000;2023-01-25T01:23:43;33.88;;;21.67;;
7829;SDS011;3960;51.86894000;5.39848000;2023-01-25T01:26:11;34.33;;;21.77;;
7829;SDS011;3960;51.86894000;5.39848000;2023-01-25T01:28:38;37.05;;;21.60;;
7829;SDS011;3960;51.86894000;5.39848000;2023-01-25T01:31:05;36.03;;;22.23;;
7829;SDS011;3960;51.86894000;5.39848000;2023-01-25T01:33:32;33.58;;;21.00;;
7829;SDS011;3960;51.86894000;5.39848000;2023-01-25T01:35:57;35.95;;;21.52;;
7829;SDS011;3960;51.86894000;5.39848000;2023-01-25T01:38:23;33.50;;;22.02;;
7829;SDS011;3960;51.86894000;5.39848000;2023-01-25T01:40:48;37.03;;;22.23;;
7829;SDS011;3960;51.86894000;5.39848000;2023-01-25T01:43:16;32.15;;;20.85;;
7829;SDS011;3960;51.86894000;5.39848000;2023-01-25T01:50:47;35.30;;;21.77;;
7829;SDS011;3960;51.86894000;5.39848000;2023-01-25T01:53:16;33.60;;;21.50;;
7829;SDS011;3960;51.86894000;5.39848000;2023-01-25T01:55:42;33.20;;;21.98;;
7829;SDS011;3960;51.86894000;5.39848000;2023-01-25T01:58:07;37.80;;;22.75;;
7829;SDS011;3960;51.86894000;5.39848000;2023-01-25T02:00:34;35.80;;;22.50;;
7829;SDS011;3960;51.86894000;5.39848000;2023-01-25T02:03:03;35.05;;;22.55;;
7829;SDS011;3960;51.86894000;5.39848000;2023-01-25T02:05:37;37.00;;;23.38;;
7829;SDS011;3960;51.86894000;5.39848000;2023-01-25T02:08:08;37.33;;;22.52;;
7829;SDS011;3960;51.86894000;5.39848000;2023-01-25T02:10:37;39.25;;;24.25;;
7829;SDS011;3960;51.86894000;5.39848000;2023-01-25T02:13:03;37.92;;;23.80;;
7829;SDS011;3960;51.86894000;5.39848000;2023-01-25T02:15:32;37.55;;;23.38;;
7829;SDS011;3960;51.86894000;5.39848000;2023-01-25T02:18:01;37.05;;;23.05;;
7829;SDS011;3960;51.86894000;5.39848000;2023-01-25T02:25:32;34.17;;;22.13;;
7829;SDS011;3960;51.86894000;5.39848000;2023-01-25T02:28:12;32.60;;;19.60;;
7829;SDS011;3960;51.86894000;5.39848000;2023-01-25T02:30:41;33.00;;;20.65;;
7829;SDS011;3960;51.86894000;5.39848000;2023-01-25T02:33:06;34.17;;;20.52;;
7829;SDS011;3960;51.86894000;5.39848000;2023-01-25T02:38:02;33.03;;;21.08;;
7829;SDS011;3960;51.86894000;5.39848000;2023-01-25T02:40:29;37.80;;;22.42;;
7829;SDS011;3960;51.86894000;5.39848000;2023-01-25T02:42:56;33.88;;;20.85;;
7829;SDS011;3960;51.86894000;5.39848000;2023-01-25T02:45:22;35.60;;;20.48;;
7829;SDS011;3960;51.86894000;5.39848000;2023-01-25T02:47:52;36.70;;;21.63;;
7829;SDS011;3960;51.86894000;5.39848000;2023-01-25T02:50:17;32.50;;;20.30;;
7829;SDS011;3960;51.86894000;5.39848000;2023-01-25T02:52:42;32.88;;;21.40;;
7829;SDS011;3960;51.86894000;5.39848000;2023-01-25T02:55:08;37.90;;;21.80;;
7829;SDS011;3960;51.86894000;5.39848000;2023-01-25T02:57:33;32.65;;;19.20;;
7829;SDS011;3960;51.86894000;5.39848000;2023-01-25T02:59:59;33.47;;;20.40;;
7829;SDS011;3960;51.86894000;5.39848000;2023-01-25T03:02:24;35.80;;;19.55;;
7829;SDS011;3960;51.86894000;5.39848000;2023-01-25T03:04:49;34.47;;;21.35;;
7829;SDS011;3960;51.86894000;5.39848000;2023-01-25T03:07:15;32.25;;;21.70;;
7829;SDS011;3960;51.86894000;5.39848000;2023-01-25T03:09:40;33.42;;;21.40;;
7829;SDS011;3960;51.86894000;5.39848000;2023-01-25T03:12:06;32.83;;;20.65;;
7829;SDS011;3960;51.86894000;5.39848000;2023-01-25T03:14:31;34.13;;;21.25;;
7829;SDS011;3960;51.86894000;5.39848000;2023-01-25T03:16:56;36.08;;;20.67;;
7829;SDS011;3960;51.86894000;5.39848000;2023-01-25T03:19:22;30.88;;;20.25;;
7829;SDS011;3960;51.86894000;5.39848000;2023-01-25T03:21:47;37.13;;;21.40;;
7829;SDS011;3960;51.86894000;5.39848000;2023-01-25T03:24:12;35.78;;;21.75;;
7829;SDS011;3960;51.86894000;5.39848000;2023-01-25T03:26:37;38.22;;;23.25;;
7829;SDS011;3960;51.86894000;5.39848000;2023-01-25T03:29:21;37.08;;;22.77;;
7829;SDS011;3960;51.86894000;5.39848000;2023-01-25T03:31:46;37.78;;;22.75;;
7829;SDS011;3960;51.86894000;5.39848000;2023-01-25T03:34:12;36.60;;;21.83;;
7829;SDS011;3960;51.86894000;5.39848000;2023-01-25T03:36:37;32.83;;;22.00;;
7829;SDS011;3960;51.86894000;5.39848000;2023-01-25T03:39:02;36.70;;;22.65;;
7829;SDS011;3960;51.86894000;5.39848000;2023-01-25T03:41:28;36.60;;;22.30;;
7829;SDS011;3960;51.86894000;5.39848000;2023-01-25T03:43:53;35.78;;;21.83;;
7829;SDS011;3960;51.86894000;5.39848000;2023-01-25T03:46:18;35.45;;;22.52;;
7829;SDS011;3960;51.86894000;5.39848000;2023-01-25T03:48:43;38.17;;;22.65;;
7829;SDS011;3960;51.86894000;5.39848000;2023-01-25T03:51:09;38.75;;;22.13;;
7829;SDS011;3960;51.86894000;5.39848000;2023-01-25T03:53:34;37.00;;;22.80;;
7829;SDS011;3960;51.86894000;5.39848000;2023-01-25T03:56:00;35.97;;;22.08;;
7829;SDS011;3960;51.86894000;5.39848000;2023-01-25T03:58:26;35.42;;;22.67;;
7829;SDS011;3960;51.86894000;5.39848000;2023-01-25T04:00:56;33.47;;;20.92;;
7829;SDS011;3960;51.86894000;5.39848000;2023-01-25T04:03:23;34.50;;;21.55;;
7829;SDS011;3960;51.86894000;5.39848000;2023-01-25T04:05:49;34.88;;;22.15;;
7829;SDS011;3960;51.86894000;5.39848000;2023-01-25T04:08:15;36.45;;;21.70;;
7829;SDS011;3960;51.86894000;5.39848000;2023-01-25T04:10:40;34.20;;;21.63;;
7829;SDS011;3960;51.86894000;5.39848000;2023-01-25T04:13:05;36.95;;;22.13;;
7829;SDS011;3960;51.86894000;5.39848000;2023-01-25T04:15:31;35.35;;;21.88;;
7829;SDS011;3960;51.86894000;5.39848000;2023-01-25T04:17:56;37.95;;;21.92;;
7829;SDS011;3960;51.86894000;5.39848000;2023-01-25T04:20:21;34.38;;;21.60;;
7829;SDS011;3960;51.86894000;5.39848000;2023-01-25T04:22:47;33.45;;;21.98;;
7829;SDS011;3960;51.86894000;5.39848000;2023-01-25T04:25:12;38.22;;;22.70;;
7829;SDS011;3960;51.86894000;5.39848000;2023-01-25T04:27:37;34.78;;;22.58;;
7829;SDS011;3960;51.86894000;5.39848000;2023-01-25T04:30:03;36.58;;;22.88;;
7829;SDS011;3960;51.86894000;5.39848000;2023-01-25T04:32:29;37.05;;;22.45;;
7829;SDS011;3960;51.86894000;5.39848000;2023-01-25T04:34:54;35.92;;;22.40;;
7829;SDS011;3960;51.86894000;5.39848000;2023-01-25T04:37:19;38.17;;;22.20;;
7829;SDS011;3960;51.86894000;5.39848000;2023-01-25T04:39:45;37.47;;;22.98;;
7829;SDS011;3960;51.86894000;5.39848000;2023-01-25T04:42:10;39.05;;;22.95;;
7829;SDS011;3960;51.86894000;5.39848000;2023-01-25T04:44:35;36.00;;;23.15;;
7829;SDS011;3960;51.86894000;5.39848000;2023-01-25T04:47:00;33.83;;;21.65;;
7829;SDS011;3960;51.86894000;5.39848000;2023-01-25T04:49:27;38.15;;;22.63;;
7829;SDS011;3960;51.86894000;5.39848000;2023-01-25T04:51:52;36.78;;;22.70;;
7829;SDS011;3960;51.86894000;5.39848000;2023-01-25T04:54:18;38.88;;;22.95;;
7829;SDS011;3960;51.86894000;5.39848000;2023-01-25T04:56:43;35.40;;;20.48;;
7829;SDS011;3960;51.86894000;5.39848000;2023-01-25T04:59:09;39.42;;;22.60;;
7829;SDS011;3960;51.86894000;5.39848000;2023-01-25T05:01:34;39.30;;;22.58;;
7829;SDS011;3960;51.86894000;5.39848000;2023-01-25T05:04:00;38.85;;;23.40;;
7829;SDS011;3960;51.86894000;5.39848000;2023-01-25T05:06:25;37.78;;;22.73;;
7829;SDS011;3960;51.86894000;5.39848000;2023-01-25T05:08:50;39.05;;;22.90;;
7829;SDS011;3960;51.86894000;5.39848000;2023-01-25T05:11:16;41.28;;;23.02;;
7829;SDS011;3960;51.86894000;5.39848000;2023-01-25T05:13:41;37.42;;;22.35;;
7829;SDS011;3960;51.86894000;5.39848000;2023-01-25T05:16:06;39.50;;;23.85;;
7829;SDS011;3960;51.86894000;5.39848000;2023-01-25T05:18:32;38.50;;;23.15;;
7829;SDS011;3960;51.86894000;5.39848000;2023-01-25T05:20:57;41.05;;;23.95;;
7829;SDS011;3960;51.86894000;5.39848000;2023-01-25T05:23:22;40.88;;;24.08;;
7829;SDS011;3960;51.86894000;5.39848000;2023-01-25T05:25:47;40.67;;;23.27;;
7829;SDS011;3960;51.86894000;5.39848000;2023-01-25T05:28:31;40.92;;;24.00;;
7829;SDS011;3960;51.86894000;5.39848000;2023-01-25T05:30:57;41.58;;;25.42;;
7829;SDS011;3960;51.86894000;5.39848000;2023-01-25T05:33:22;42.60;;;25.00;;
7829;SDS011;3960;51.86894000;5.39848000;2023-01-25T05:35:47;41.45;;;24.20;;
7829;SDS011;3960;51.86894000;5.39848000;2023-01-25T05:38:13;41.08;;;23.90;;
7829;SDS011;3960;51.86894000;5.39848000;2023-01-25T05:40:38;43.00;;;26.50;;
7829;SDS011;3960;51.86894000;5.39848000;2023-01-25T05:43:03;39.08;;;24.23;;
7829;SDS011;3960;51.86894000;5.39848000;2023-01-25T05:45:29;40.92;;;24.17;;
7829;SDS011;3960;51.86894000;5.39848000;2023-01-25T05:47:54;43.53;;;25.38;;
7829;SDS011;3960;51.86894000;5.39848000;2023-01-25T05:50:21;44.47;;;25.00;;
7829;SDS011;3960;51.86894000;5.39848000;2023-01-25T05:52:47;44.42;;;25.80;;
7829;SDS011;3960;51.86894000;5.39848000;2023-01-25T05:55:13;45.00;;;25.45;;
7829;SDS011;3960;51.86894000;5.39848000;2023-01-25T05:57:38;41.83;;;24.50;;
7829;SDS011;3960;51.86894000;5.39848000;2023-01-25T06:00:04;42.70;;;24.48;;
7829;SDS011;3960;51.86894000;5.39848000;2023-01-25T06:02:30;41.95;;;24.30;;
7829;SDS011;3960;51.86894000;5.39848000;2023-01-25T06:04:56;41.45;;;24.25;;
7829;SDS011;3960;51.86894000;5.39848000;2023-01-25T06:07:21;44.33;;;24.33;;
7829;SDS011;3960;51.86894000;5.39848000;2023-01-25T06:09:47;44.72;;;25.38;;
7829;SDS011;3960;51.86894000;5.39848000;2023-01-25T06:12:12;42.85;;;25.25;;
7829;SDS011;3960;51.86894000;5.39848000;2023-01-25T06:14:37;42.95;;;26.13;;
7829;SDS011;3960;51.86894000;5.39848000;2023-01-25T06:17:02;44.05;;;26.15;;
7829;SDS011;3960;51.86894000;5.39848000;2023-01-25T06:19:28;44.75;;;24.98;;
7829;SDS011;3960;51.86894000;5.39848000;2023-01-25T06:21:53;45.78;;;25.80;;
7829;SDS011;3960;51.86894000;5.39848000;2023-01-25T06:24:18;44.88;;;26.10;;
7829;SDS011;3960;51.86894000;5.39848000;2023-01-25T06:26:43;46.15;;;25.48;;
7829;SDS011;3960;51.86894000;5.39848000;2023-01-25T06:29:09;46.47;;;27.67;;
7829;SDS011;3960;51.86894000;5.39848000;2023-01-25T06:31:34;44.22;;;25.80;;
7829;SDS011;3960;51.86894000;5.39848000;2023-01-25T06:33:59;44.60;;;25.83;;
7829;SDS011;3960;51.86894000;5.39848000;2023-01-25T06:36:28;46.17;;;27.23;;
7829;SDS011;3960;51.86894000;5.39848000;2023-01-25T06:38:54;44.58;;;26.55;;
7829;SDS011;3960;51.86894000;5.39848000;2023-01-25T06:41:19;46.28;;;26.65;;
7829;SDS011;3960;51.86894000;5.39848000;2023-01-25T06:43:46;45.63;;;25.55;;
7829;SDS011;3960;51.86894000;5.39848000;2023-01-25T06:46:13;45.83;;;25.73;;
7829;SDS011;3960;51.86894000;5.39848000;2023-01-25T06:48:39;49.15;;;27.35;;
7829;SDS011;3960;51.86894000;5.39848000;2023-01-25T06:51:07;49.88;;;28.17;;
7829;SDS011;3960;51.86894000;5.39848000;2023-01-25T06:53:35;50.25;;;28.50;;
7829;SDS011;3960;51.86894000;5.39848000;2023-01-25T06:56:07;48.70;;;27.20;;
7829;SDS011;3960;51.86894000;5.39848000;2023-01-25T06:58:34;51.85;;;27.95;;
7829;SDS011;3960;51.86894000;5.39848000;2023-01-25T07:01:04;50.83;;;28.27;;
7829;SDS011;3960;51.86894000;5.39848000;2023-01-25T07:03:54;46.42;;;26.70;;
7829;SDS011;3960;51.86894000;5.39848000;2023-01-25T07:06:21;50.10;;;27.40;;
7829;SDS011;3960;51.86894000;5.39848000;2023-01-25T07:08:47;50.15;;;26.50;;
7829;SDS011;3960;51.86894000;5.39848000;2023-01-25T07:11:13;48.05;;;27.40;;
7829;SDS011;3960;51.86894000;5.39848000;2023-01-25T07:13:40;49.95;;;27.02;;
7829;SDS011;3960;51.86894000;5.39848000;2023-01-25T07:16:07;51.92;;;27.08;;
7829;SDS011;3960;51.86894000;5.39848000;2023-01-25T07:18:39;47.92;;;26.98;;
7829;SDS011;3960;51.86894000;5.39848000;2023-01-25T07:21:06;48.05;;;26.75;;
7829;SDS011;3960;51.86894000;5.39848000;2023-01-25T07:23:36;55.55;;;28.00;;
7829;SDS011;3960;51.86894000;5.39848000;2023-01-25T07:26:02;51.65;;;28.60;;
7829;SDS011;3960;51.86894000;5.39848000;2023-01-25T07:28:29;48.72;;;26.63;;
7829;SDS011;3960;51.86894000;5.39848000;2023-01-25T07:30:55;49.60;;;28.30;;
7829;SDS011;3960;51.86894000;5.39848000;2023-01-25T07:33:21;49.45;;;28.55;;
7829;SDS011;3960;51.86894000;5.39848000;2023-01-25T07:35:46;50.20;;;28.05;;
7829;SDS011;3960;51.86894000;5.39848000;2023-01-25T07:38:14;46.05;;;27.08;;
7829;SDS011;3960;51.86894000;5.39848000;2023-01-25T07:40:40;46.20;;;27.17;;
7829;SDS011;3960;51.86894000;5.39848000;2023-01-25T07:43:05;47.63;;;27.02;;
7829;SDS011;3960;51.86894000;5.39848000;2023-01-25T07:45:30;47.08;;;26.20;;
7829;SDS011;3960;51.86894000;5.39848000;2023-01-25T07:47:56;50.22;;;28.05;;
7829;SDS011;3960;51.86894000;5.39848000;2023-01-25T07:50:23;47.25;;;26.90;;
7829;SDS011;3960;51.86894000;5.39848000;2023-01-25T07:52:49;50.55;;;27.05;;
7829;SDS011;3960;51.86894000;5.39848000;2023-01-25T07:55:14;48.47;;;25.92;;
7829;SDS011;3960;51.86894000;5.39848000;2023-01-25T07:57:39;53.47;;;28.70;;
7829;SDS011;3960;51.86894000;5.39848000;2023-01-25T08:00:05;50.97;;;28.27;;
7829;SDS011;3960;51.86894000;5.39848000;2023-01-25T08:02:31;49.13;;;27.15;;
7829;SDS011;3960;51.86894000;5.39848000;2023-01-25T08:04:57;48.08;;;27.88;;
7829;SDS011;3960;51.86894000;5.39848000;2023-01-25T08:07:22;50.08;;;28.67;;
7829;SDS011;3960;51.86894000;5.39848000;2023-01-25T08:09:47;48.83;;;26.70;;
7829;SDS011;3960;51.86894000;5.39848000;2023-01-25T08:12:13;49.63;;;27.23;;
7829;SDS011;3960;51.86894000;5.39848000;2023-01-25T08:14:38;50.85;;;28.83;;
7829;SDS011;3960;51.86894000;5.39848000;2023-01-25T08:17:03;49.97;;;28.00;;
7829;SDS011;3960;51.86894000;5.39848000;2023-01-25T08:19:29;48.28;;;26.92;;
7829;SDS011;3960;51.86894000;5.39848000;2023-01-25T08:21:54;48.30;;;27.73;;
7829;SDS011;3960;51.86894000;5.39848000;2023-01-25T08:24:19;51.17;;;27.38;;
7829;SDS011;3960;51.86894000;5.39848000;2023-01-25T08:26:44;52.28;;;28.23;;
7829;SDS011;3960;51.86894000;5.39848000;2023-01-25T08:29:10;48.63;;;26.88;;
7829;SDS011;3960;51.86894000;5.39848000;2023-01-25T08:31:37;49.28;;;27.23;;
7829;SDS011;3960;51.86894000;5.39848000;2023-01-25T08:34:04;52.33;;;28.08;;
7829;SDS011;3960;51.86894000;5.39848000;2023-01-25T08:36:31;50.53;;;27.23;;
7829;SDS011;3960;51.86894000;5.39848000;2023-01-25T08:38:58;51.65;;;28.08;;
7829;SDS011;3960;51.86894000;5.39848000;2023-01-25T08:43:54;50.78;;;26.95;;
7829;SDS011;3960;51.86894000;5.39848000;2023-01-25T08:46:21;47.47;;;26.67;;
7829;SDS011;3960;51.86894000;5.39848000;2023-01-25T08:48:48;50.70;;;27.35;;
7829;SDS011;3960;51.86894000;5.39848000;2023-01-25T08:51:17;54.20;;;27.35;;
7829;SDS011;3960;51.86894000;5.39848000;2023-01-25T08:53:43;49.97;;;26.83;;
7829;SDS011;3960;51.86894000;5.39848000;2023-01-25T08:56:09;50.85;;;27.65;;
7829;SDS011;3960;51.86894000;5.39848000;2023-01-25T08:58:36;50.97;;;27.98;;
7829;SDS011;3960;51.86894000;5.39848000;2023-01-25T09:01:04;50.50;;;27.88;;
7829;SDS011;3960;51.86894000;5.39848000;2023-01-25T09:03:30;51.83;;;28.30;;
7829;SDS011;3960;51.86894000;5.39848000;2023-01-25T09:05:58;47.88;;;27.02;;
7829;SDS011;3960;51.86894000;5.39848000;2023-01-25T09:08:24;50.28;;;27.17;;
7829;SDS011;3960;51.86894000;5.39848000;2023-01-25T09:10:49;45.50;;;25.42;;
7829;SDS011;3960;51.86894000;5.39848000;2023-01-25T09:13:14;50.63;;;26.48;;
7829;SDS011;3960;51.86894000;5.39848000;2023-01-25T09:15:39;50.97;;;27.75;;
7829;SDS011;3960;51.86894000;5.39848000;2023-01-25T09:18:05;47.47;;;25.80;;
7829;SDS011;3960;51.86894000;5.39848000;2023-01-25T09:20:30;47.92;;;27.67;;
7829;SDS011;3960;51.86894000;5.39848000;2023-01-25T09:22:56;46.38;;;25.52;;
7829;SDS011;3960;51.86894000;5.39848000;2023-01-25T09:25:21;47.20;;;25.98;;
7829;SDS011;3960;51.86894000;5.39848000;2023-01-25T09:27:50;49.38;;;26.40;;
7829;SDS011;3960;51.86894000;5.39848000;2023-01-25T09:30:16;47.58;;;25.77;;
7829;SDS011;3960;51.86894000;5.39848000;2023-01-25T09:32:42;45.55;;;25.88;;
7829;SDS011;3960;51.86894000;5.39848000;2023-01-25T09:35:07;48.63;;;26.40;;
7829;SDS011;3960;51.86894000;5.39848000;2023-01-25T09:37:32;50.05;;;26.08;;
7829;SDS011;3960;51.86894000;5.39848000;2023-01-25T09:39:58;51.67;;;27.92;;
7829;SDS011;3960;51.86894000;5.39848000;2023-01-25T09:42:29;50.33;;;27.52;;
7829;SDS011;3960;51.86894000;5.39848000;2023-01-25T09:50:36;48.00;;;26.52;;
7829;SDS011;3960;51.86894000;5.39848000;2023-01-25T09:55:33;46.35;;;25.48;;
7829;SDS011;3960;51.86894000;5.39848000;2023-01-25T09:58:00;46.50;;;26.98;;
7829;SDS011;3960;51.86894000;5.39848000;2023-01-25T10:00:27;45.88;;;25.55;;
7829;SDS011;3960;51.86894000;5.39848000;2023-01-25T10:02:57;44.70;;;24.80;;
7829;SDS011;3960;51.86894000;5.39848000;2023-01-25T10:05:29;44.08;;;25.58;;
7829;SDS011;3960;51.86894000;5.39848000;2023-01-25T10:08:02;45.85;;;24.42;;
7829;SDS011;3960;51.86894000;5.39848000;2023-01-25T10:10:39;42.00;;;24.50;;
7829;SDS011;3960;51.86894000;5.39848000;2023-01-25T10:13:13;45.40;;;25.02;;
7829;SDS011;3960;51.86894000;5.39848000;2023-01-25T10:21:30;45.13;;;25.27;;
7829;SDS011;3960;51.86894000;5.39848000;2023-01-25T10:26:50;44.58;;;24.73;;
7829;SDS011;3960;51.86894000;5.39848000;2023-01-25T10:29:21;46.38;;;24.88;;
7829;SDS011;3960;51.86894000;5.39848000;2023-01-25T10:31:53;44.83;;;24.00;;
7829;SDS011;3960;51.86894000;5.39848000;2023-01-25T10:34:35;46.95;;;25.60;;
7829;SDS011;3960;51.86894000;5.39848000;2023-01-25T10:37:14;45.95;;;25.75;;
7829;SDS011;3960;51.86894000;5.39848000;2023-01-25T10:39:51;46.65;;;24.90;;
7829;SDS011;3960;51.86894000;5.39848000;2023-01-25T10:42:43;50.40;;;25.60;;
7829;SDS011;3960;51.86894000;5.39848000;2023-01-25T10:45:20;49.08;;;26.83;;
7829;SDS011;3960;51.86894000;5.39848000;2023-01-25T10:47:47;47.15;;;26.38;;
7829;SDS011;3960;51.86894000;5.39848000;2023-01-25T10:50:58;46.53;;;25.45;;
7829;SDS011;3960;51.86894000;5.39848000;2023-01-25T10:56:32;46.15;;;23.98;;
7829;SDS011;3960;51.86894000;5.39848000;2023-01-25T10:58:44;49.90;;;25.15;;
7829;SDS011;3960;51.86894000;5.39848000;2023-01-25T11:01:12;46.35;;;25.58;;
7829;SDS011;3960;51.86894000;5.39848000;2023-01-25T11:03:50;47.55;;;25.15;;
7829;SDS011;3960;51.86894000;5.39848000;2023-01-25T11:06:16;45.92;;;26.23;;
7829;SDS011;3960;51.86894000;5.39848000;2023-01-25T11:08:53;46.50;;;25.02;;
7829;SDS011;3960;51.86894000;5.39848000;2023-01-25T11:13:53;45.53;;;25.35;;
7829;SDS011;3960;51.86894000;5.39848000;2023-01-25T11:16:23;47.40;;;25.63;;
7829;SDS011;3960;51.86894000;5.39848000;2023-01-25T11:18:50;46.63;;;25.80;;
7829;SDS011;3960;51.86894000;5.39848000;2023-01-25T11:21:20;49.40;;;26.73;;
7829;SDS011;3960;51.86894000;5.39848000;2023-01-25T11:26:39;51.83;;;27.20;;
7829;SDS011;3960;51.86894000;5.39848000;2023-01-25T11:31:47;48.78;;;25.50;;
7829;SDS011;3960;51.86894000;5.39848000;2023-01-25T11:34:16;52.75;;;26.88;;
7829;SDS011;3960;51.86894000;5.39848000;2023-01-25T11:42:04;54.38;;;27.10;;
7829;SDS011;3960;51.86894000;5.39848000;2023-01-25T11:51:01;51.33;;;25.60;;
7829;SDS011;3960;51.86894000;5.39848000;2023-01-25T11:56:21;47.78;;;22.98;;
7829;SDS011;3960;51.86894000;5.39848000;2023-01-25T11:59:37;48.42;;;24.63;;
7829;SDS011;3960;51.86894000;5.39848000;2023-01-25T12:08:04;55.85;;;26.20;;
7829;SDS011;3960;51.86894000;5.39848000;2023-01-25T12:18:40;53.28;;;24.63;;
7829;SDS011;3960;51.86894000;5.39848000;2023-01-25T12:21:15;52.38;;;25.95;;
7829;SDS011;3960;51.86894000;5.39848000;2023-01-25T12:23:54;57.70;;;27.73;;
7829;SDS011;3960;51.86894000;5.39848000;2023-01-25T12:26:29;56.00;;;27.75;;
7829;SDS011;3960;51.86894000;5.39848000;2023-01-25T12:29:15;59.03;;;27.70;;
7829;SDS011;3960;51.86894000;5.39848000;2023-01-25T12:31:57;51.88;;;26.77;;
7829;SDS011;3960;51.86894000;5.39848000;2023-01-25T12:36:59;58.60;;;28.40;;
7829;SDS011;3960;51.86894000;5.39848000;2023-01-25T12:39:36;61.25;;;27.92;;
7829;SDS011;3960;51.86894000;5.39848000;2023-01-25T12:42:17;62.40;;;29.67;;
7829;SDS011;3960;51.86894000;5.39848000;2023-01-25T12:44:58;64.50;;;28.95;;
7829;SDS011;3960;51.86894000;5.39848000;2023-01-25T12:47:32;56.97;;;29.38;;
7829;SDS011;3960;51.86894000;5.39848000;2023-01-25T12:50:03;57.05;;;27.40;;
7829;SDS011;3960;51.86894000;5.39848000;2023-01-25T12:52:38;60.30;;;28.55;;
7829;SDS011;3960;51.86894000;5.39848000;2023-01-25T12:55:13;54.97;;;26.83;;
7829;SDS011;3960;51.86894000;5.39848000;2023-01-25T13:03:00;58.50;;;28.35;;
7829;SDS011;3960;51.86894000;5.39848000;2023-01-25T13:08:21;59.80;;;28.40;;
7829;SDS011;3960;51.86894000;5.39848000;2023-01-25T13:10:59;65.30;;;29.48;;
7829;SDS011;3960;51.86894000;5.39848000;2023-01-25T13:13:36;58.95;;;28.58;;
7829;SDS011;3960;51.86894000;5.39848000;2023-01-25T13:18:48;63.95;;;30.38;;
7829;SDS011;3960;51.86894000;5.39848000;2023-01-25T13:21:37;61.80;;;30.45;;
7829;SDS011;3960;51.86894000;5.39848000;2023-01-25T13:24:10;55.17;;;27.15;;
7829;SDS011;3960;51.86894000;5.39848000;2023-01-25T13:29:41;65.75;;;28.08;;
7829;SDS011;3960;51.86894000;5.39848000;2023-01-25T13:32:10;57.25;;;28.48;;
7829;SDS011;3960;51.86894000;5.39848000;2023-01-25T13:39:58;56.88;;;26.98;;
7829;SDS011;3960;51.86894000;5.39848000;2023-01-25T13:42:28;62.35;;;29.48;;
7829;SDS011;3960;51.86894000;5.39848000;2023-01-25T13:44:58;60.55;;;27.45;;
7829;SDS011;3960;51.86894000;5.39848000;2023-01-25T13:47:42;60.00;;;28.23;;
7829;SDS011;3960;51.86894000;5.39848000;2023-01-25T13:50:24;59.85;;;29.60;;
7829;SDS011;3960;51.86894000;5.39848000;2023-01-25T13:53:16;60.13;;;28.88;;
7829;SDS011;3960;51.86894000;5.39848000;2023-01-25T13:55:46;69.25;;;28.60;;
7829;SDS011;3960;51.86894000;5.39848000;2023-01-25T14:03:24;66.30;;;29.85;;
7829;SDS011;3960;51.86894000;5.39848000;2023-01-25T14:05:53;64.32;;;29.98;;
7829;SDS011;3960;51.86894000;5.39848000;2023-01-25T14:08:20;62.50;;;29.23;;
7829;SDS011;3960;51.86894000;5.39848000;2023-01-25T14:10:46;72.68;;;31.85;;
7829;SDS011;3960;51.86894000;5.39848000;2023-01-25T14:13:13;72.15;;;32.30;;
7829;SDS011;3960;51.86894000;5.39848000;2023-01-25T14:15:40;69.88;;;30.67;;
7829;SDS011;3960;51.86894000;5.39848000;2023-01-25T14:21:17;75.03;;;31.30;;
7829;SDS011;3960;51.86894000;5.39848000;2023-01-25T14:23:45;75.10;;;31.65;;
7829;SDS011;3960;51.86894000;5.39848000;2023-01-25T14:28:46;75.97;;;31.10;;
7829;SDS011;3960;51.86894000;5.39848000;2023-01-25T14:31:20;66.38;;;31.88;;
7829;SDS011;3960;51.86894000;5.39848000;2023-01-25T14:33:48;74.13;;;32.50;;
7829;SDS011;3960;51.86894000;5.39848000;2023-01-25T14:36:21;67.07;;;30.88;;
7829;SDS011;3960;51.86894000;5.39848000;2023-01-25T14:38:47;71.40;;;33.63;;
7829;SDS011;3960;51.86894000;5.39848000;2023-01-25T14:41:20;72.50;;;32.92;;
7829;SDS011;3960;51.86894000;5.39848000;2023-01-25T14:43:50;75.03;;;33.42;;
7829;SDS011;3960;51.86894000;5.39848000;2023-01-25T14:48:44;83.35;;;35.47;;